createdAt,value
2022-12-25T00:00:21.273Z,5.90
2022-12-25T00:02:51.890Z,5.60
2022-12-25T00:05:21.871Z,5.60
2022-12-25T00:07:52.376Z,5.80
2022-12-25T00:10:22.279Z,5.70
2022-12-25T00:12:52.397Z,5.80
2022-12-25T00:15:24.841Z,5.80
2022-12-25T00:17:55.300Z,5.90
2022-12-25T00:20:25.307Z,5.90
2022-12-25T00:22:55.719Z,6.00
2022-12-25T00:25:25.506Z,5.70
2022-12-25T00:27:55.797Z,5.90
2022-12-25T00:30:28.167Z,5.90
2022-12-25T00:32:58.162Z,5.90
2022-12-25T00:35:27.943Z,6.20
2022-12-25T00:37:58.700Z,5.80
2022-12-25T00:40:28.508Z,6.40
2022-12-25T00:42:59.035Z,6.00
2022-12-25T00:45:31.490Z,6.20
2022-12-25T00:48:01.686Z,6.30
2022-12-25T00:50:31.514Z,6.10
2022-12-25T00:53:01.716Z,6.20
2022-12-25T00:55:33.169Z,6.10
2022-12-25T00:58:03.486Z,6.20
2022-12-25T01:00:35.946Z,6.40
2022-12-25T01:03:06.482Z,6.10
2022-12-25T01:05:36.390Z,6.10
2022-12-25T01:08:07.277Z,6.00
2022-12-25T01:10:34.646Z,6.10
2022-12-25T01:13:05.073Z,6.10
2022-12-25T01:15:39.402Z,6.10
2022-12-25T01:18:12.799Z,6.10
2022-12-25T01:20:42.802Z,6.20
2022-12-25T01:23:13.372Z,6.10
2022-12-25T01:25:43.949Z,6.10
2022-12-25T01:28:14.347Z,6.00
2022-12-25T01:30:50.969Z,6.30
2022-12-25T01:33:21.935Z,6.10
2022-12-25T01:35:51.759Z,6.00
2022-12-25T01:38:22.840Z,6.20
2022-12-25T01:40:52.972Z,6.10
2022-12-25T01:43:27.687Z,6.00
2022-12-25T01:46:00.722Z,6.20
2022-12-25T01:48:35.794Z,6.00
2022-12-25T01:51:22.358Z,6.10
2022-12-25T01:53:52.943Z,6.10
2022-12-25T01:56:22.946Z,6.10
2022-12-25T01:58:53.814Z,6.20
2022-12-25T02:01:26.351Z,6.00
2022-12-25T02:04:03.689Z,6.10
2022-12-25T02:06:33.964Z,6.20
2022-12-25T02:09:04.707Z,6.00
2022-12-25T02:11:46.965Z,6.00
2022-12-25T02:14:17.224Z,6.00
2022-12-25T02:16:57.545Z,5.90
2022-12-25T02:19:40.649Z,6.20
2022-12-25T02:22:19.892Z,6.30
2022-12-25T02:25:00.558Z,6.00
2022-12-25T02:28:08.722Z,5.80
2022-12-25T02:30:45.571Z,5.80
2022-12-25T02:33:32.321Z,6.00
2022-12-25T02:36:08.383Z,5.80
2022-12-25T02:39:02.058Z,6.30
2022-12-25T02:41:34.365Z,5.70
2022-12-25T02:44:39.432Z,6.00
2022-12-25T02:47:23.797Z,5.90
2022-12-25T02:50:09.460Z,6.30
2022-12-25T02:52:52.000Z,5.90
2022-12-25T02:55:39.135Z,5.80
2022-12-25T02:58:25.351Z,5.90
2022-12-25T03:01:16.824Z,5.90
2022-12-25T03:04:02.797Z,5.90
2022-12-25T03:06:47.757Z,5.70
2022-12-25T03:09:38.035Z,5.90
2022-12-25T03:12:16.418Z,5.90
2022-12-25T03:14:59.339Z,5.90
2022-12-25T03:17:33.389Z,5.90
2022-12-25T03:20:15.992Z,6.00
2022-12-25T03:22:59.492Z,5.90
2022-12-25T03:25:44.205Z,6.30
2022-12-25T03:28:14.053Z,6.10
2022-12-25T03:31:02.362Z,5.90
2022-12-25T03:34:11.768Z,5.90
2022-12-25T03:36:48.558Z,6.10
2022-12-25T03:39:40.973Z,5.90
2022-12-25T03:42:25.710Z,6.00
2022-12-25T03:45:19.759Z,6.30
2022-12-25T03:48:05.435Z,5.80
2022-12-25T03:50:56.675Z,5.90
2022-12-25T03:53:42.516Z,5.90
2022-12-25T03:56:26.063Z,5.90
2022-12-25T03:59:09.769Z,5.90
2022-12-25T04:01:52.860Z,5.80
2022-12-25T04:04:35.740Z,5.90
2022-12-25T04:07:20.617Z,5.80
2022-12-25T04:10:03.487Z,6.00
2022-12-25T04:12:45.770Z,5.80
2022-12-25T04:15:28.441Z,5.80
2022-12-25T04:18:10.776Z,5.80
2022-12-25T04:20:53.651Z,6.10
2022-12-25T04:23:38.533Z,5.80
2022-12-25T04:26:21.380Z,6.10
2022-12-25T04:29:03.661Z,6.00
2022-12-25T04:31:46.279Z,5.90
2022-12-25T04:34:28.717Z,5.90
2022-12-25T04:36:58.555Z,5.90
2022-12-25T04:39:31.310Z,6.10
2022-12-25T04:42:01.237Z,5.80
2022-12-25T04:44:31.783Z,5.90
2022-12-25T04:47:04.583Z,6.00
2022-12-25T04:49:39.859Z,5.90
2022-12-25T04:52:09.668Z,5.80
2022-12-25T04:54:43.358Z,6.30
2022-12-25T04:57:13.230Z,6.10
2022-12-25T04:59:44.198Z,6.40
2022-12-25T05:02:14.761Z,6.20
2022-12-25T05:04:45.456Z,6.20
2022-12-25T05:07:15.333Z,6.20
2022-12-25T05:09:47.923Z,6.30
2022-12-25T05:12:17.844Z,6.40
2022-12-25T05:14:48.037Z,6.20
2022-12-25T05:17:17.920Z,6.30
2022-12-25T05:19:48.591Z,6.30
2022-12-25T05:22:18.464Z,6.30
2022-12-25T05:24:50.853Z,6.30
2022-12-25T05:27:20.724Z,6.20
2022-12-25T05:29:50.794Z,6.60
2022-12-25T05:32:20.593Z,6.70
2022-12-25T05:34:50.479Z,6.70
2022-12-25T05:37:20.268Z,6.30
2022-12-25T05:39:53.053Z,6.50
2022-12-25T05:42:22.886Z,6.40
2022-12-25T05:44:53.092Z,6.40
2022-12-25T05:47:22.986Z,6.50
2022-12-25T05:49:54.397Z,6.70
2022-12-25T05:52:24.203Z,6.50
2022-12-25T05:54:57.249Z,6.50
2022-12-25T05:57:27.189Z,6.60
2022-12-25T05:59:57.918Z,6.40
2022-12-25T06:02:29.003Z,6.70
2022-12-25T06:04:59.209Z,6.50
2022-12-25T06:07:28.981Z,6.50
2022-12-25T06:10:02.405Z,6.60
2022-12-25T06:12:32.247Z,6.60
2022-12-25T06:15:02.362Z,6.60
2022-12-25T06:17:32.189Z,6.60
2022-12-25T06:20:02.441Z,6.60
2022-12-25T06:22:32.318Z,6.80
2022-12-25T06:25:05.277Z,6.70
2022-12-25T06:27:35.075Z,6.50
2022-12-25T06:30:05.889Z,6.70
2022-12-25T06:32:35.795Z,6.70
2022-12-25T06:35:05.715Z,6.70
2022-12-25T06:37:35.618Z,6.80
2022-12-25T06:40:09.692Z,6.60
2022-12-25T06:42:39.434Z,6.70
2022-12-25T06:45:10.751Z,6.60
2022-12-25T06:47:41.200Z,6.60
2022-12-25T06:50:11.592Z,6.70
2022-12-25T06:52:41.437Z,6.90
2022-12-25T06:55:14.413Z,6.70
2022-12-25T06:57:44.293Z,6.70
2022-12-25T07:00:16.359Z,6.80
2022-12-25T07:02:50.246Z,6.60
2022-12-25T07:05:20.777Z,6.60
2022-12-25T07:07:50.582Z,6.70
2022-12-25T07:10:23.419Z,6.70
2022-12-25T07:12:53.211Z,7.10
2022-12-25T07:15:23.932Z,6.70
2022-12-25T07:17:53.700Z,6.60
2022-12-25T07:20:23.997Z,6.60
2022-12-25T07:22:53.832Z,7.00
2022-12-25T07:25:29.767Z,6.70
2022-12-25T07:28:01.935Z,6.70
2022-12-25T07:30:32.525Z,6.70
2022-12-25T07:33:02.418Z,6.70
2022-12-25T07:35:32.777Z,6.80
2022-12-25T07:38:02.561Z,6.50
2022-12-25T07:40:35.867Z,7.20
2022-12-25T07:43:05.826Z,6.90
2022-12-25T07:45:37.343Z,6.70
2022-12-25T07:48:11.986Z,6.80
2022-12-25T07:50:46.778Z,6.80
2022-12-25T07:53:16.604Z,7.20
2022-12-25T07:55:49.011Z,6.90
2022-12-25T07:58:23.327Z,7.10
2022-12-25T08:00:54.410Z,7.10
2022-12-25T08:03:24.652Z,7.00
2022-12-25T08:05:55.336Z,6.90
2022-12-25T08:08:25.188Z,7.10
2022-12-25T08:10:58.294Z,6.90
2022-12-25T08:13:28.175Z,6.90
2022-12-25T08:16:00.519Z,6.90
2022-12-25T08:18:31.516Z,7.10
2022-12-25T08:21:06.198Z,6.80
2022-12-25T08:23:37.619Z,7.10
2022-12-25T08:26:12.113Z,7.00
2022-12-25T08:28:42.240Z,6.80
2022-12-25T08:31:14.096Z,7.20
2022-12-25T08:33:44.342Z,6.90
2022-12-25T08:36:15.502Z,6.90
2022-12-25T08:38:45.583Z,7.20
2022-12-25T08:41:19.523Z,7.00
2022-12-25T08:43:49.713Z,7.10
2022-12-25T08:46:20.958Z,7.10
2022-12-25T08:48:52.375Z,6.90
2022-12-25T08:51:25.136Z,7.10
2022-12-25T08:53:56.806Z,7.20
2022-12-25T08:56:30.069Z,7.20
2022-12-25T08:58:59.924Z,7.10
2022-12-25T09:01:30.657Z,7.20
2022-12-25T09:04:00.581Z,7.00
2022-12-25T09:06:32.101Z,6.90
2022-12-25T09:09:02.024Z,7.30
2022-12-25T09:11:35.457Z,7.20
2022-12-25T09:14:05.404Z,7.10
2022-12-25T09:16:36.018Z,7.10
2022-12-25T09:19:05.876Z,7.20
2022-12-25T09:21:36.895Z,7.10
2022-12-25T09:24:07.056Z,7.10
2022-12-25T09:26:41.010Z,7.10
2022-12-25T09:29:10.801Z,7.10
2022-12-25T09:31:41.139Z,7.10
2022-12-25T09:34:17.227Z,7.20
2022-12-25T09:36:50.030Z,7.20
2022-12-25T09:39:20.101Z,7.20
2022-12-25T09:41:59.391Z,7.20
2022-12-25T09:44:32.253Z,7.30
2022-12-25T09:47:08.223Z,7.30
2022-12-25T09:49:42.696Z,7.30
2022-12-25T09:52:18.287Z,7.30
2022-12-25T09:54:56.038Z,7.30
2022-12-25T09:57:30.472Z,7.30
2022-12-25T10:00:00.528Z,7.40
2022-12-25T10:02:54.236Z,7.20
2022-12-25T10:05:47.339Z,7.60
2022-12-25T10:08:27.777Z,7.20
2022-12-25T10:11:06.927Z,7.40
2022-12-25T10:13:57.982Z,7.30
2022-12-25T10:16:36.930Z,7.80
2022-12-25T10:19:21.821Z,7.30
2022-12-25T10:21:54.988Z,7.50
2022-12-25T10:24:34.209Z,7.80
2022-12-25T10:27:10.240Z,7.50
2022-12-25T10:29:43.912Z,7.30
2022-12-25T10:32:14.459Z,7.60
2022-12-25T10:34:44.580Z,7.60
2022-12-25T10:37:15.580Z,7.90
2022-12-25T10:39:47.109Z,7.60
2022-12-25T10:42:33.845Z,7.60
2022-12-25T10:45:09.387Z,7.60
2022-12-25T10:47:42.974Z,7.60
2022-12-25T10:50:20.619Z,7.60
2022-12-25T10:52:58.569Z,7.60
2022-12-25T10:55:29.834Z,7.60
2022-12-25T10:58:02.134Z,7.70
2022-12-25T11:00:35.605Z,7.60
2022-12-25T11:03:06.309Z,7.60
2022-12-25T11:05:37.800Z,7.60
2022-12-25T11:08:23.936Z,7.80
2022-12-25T11:11:00.221Z,7.60
2022-12-25T11:13:32.937Z,7.70
2022-12-25T11:16:12.069Z,7.70
2022-12-25T11:18:50.888Z,7.60
2022-12-25T11:21:25.241Z,7.70
2022-12-25T11:24:01.029Z,7.60
2022-12-25T11:26:34.645Z,8.00
2022-12-25T11:29:05.220Z,7.80
2022-12-25T11:31:42.427Z,7.70
2022-12-25T11:34:22.378Z,7.60
2022-12-25T11:36:54.838Z,7.50
2022-12-25T11:39:29.847Z,7.50
2022-12-25T11:42:04.050Z,7.50
2022-12-25T11:44:41.978Z,7.90
2022-12-25T11:47:24.799Z,7.60
2022-12-25T11:50:01.228Z,7.60
2022-12-25T11:52:37.449Z,7.80
2022-12-25T11:55:17.725Z,7.60
2022-12-25T11:57:51.524Z,7.60
2022-12-25T12:00:23.242Z,7.60
2022-12-25T12:03:01.820Z,7.50
2022-12-25T12:05:36.994Z,7.30
2022-12-25T12:08:10.036Z,7.30
2022-12-25T12:10:56.988Z,7.50
2022-12-25T12:13:37.569Z,7.30
2022-12-25T12:16:09.192Z,7.40
2022-12-25T12:18:48.149Z,7.40
2022-12-25T12:21:24.849Z,7.50
2022-12-25T12:23:58.671Z,7.40
2022-12-25T12:26:30.744Z,7.40
2022-12-25T12:29:03.906Z,7.40
2022-12-25T12:31:42.714Z,7.40
2022-12-25T12:34:27.009Z,7.30
2022-12-25T12:37:07.040Z,7.40
2022-12-25T12:39:40.086Z,7.30
2022-12-25T12:42:16.948Z,7.20
2022-12-25T12:44:48.315Z,7.30
2022-12-25T12:47:34.029Z,7.20
2022-12-25T12:50:07.809Z,7.30
2022-12-25T12:52:42.278Z,7.30
2022-12-25T12:55:15.026Z,7.30
2022-12-25T12:57:45.429Z,7.50
2022-12-25T13:00:21.313Z,7.20
2022-12-25T13:03:17.251Z,7.20
2022-12-25T13:05:53.223Z,7.20
2022-12-25T13:08:37.911Z,7.20
2022-12-25T13:11:15.879Z,7.20
2022-12-25T13:13:51.363Z,7.10
2022-12-25T13:16:28.273Z,7.40
2022-12-25T13:18:59.917Z,7.20
2022-12-25T13:21:33.214Z,7.20
2022-12-25T13:24:07.788Z,7.20
2022-12-25T13:26:39.317Z,7.20
2022-12-25T13:29:11.786Z,7.20
2022-12-25T13:31:43.819Z,7.20
2022-12-25T13:34:25.883Z,7.20
2022-12-25T13:36:59.157Z,7.20
2022-12-25T13:39:30.234Z,7.20
2022-12-25T13:42:10.046Z,7.10
2022-12-25T13:44:49.670Z,7.50
2022-12-25T13:47:32.575Z,7.20
2022-12-25T13:50:16.153Z,7.20
2022-12-25T13:52:49.067Z,7.50
2022-12-25T13:55:23.410Z,7.40
2022-12-25T13:57:56.344Z,7.30
2022-12-25T14:00:34.585Z,7.30
2022-12-25T14:03:04.567Z,7.30
2022-12-25T14:05:42.275Z,7.30
2022-12-25T14:08:22.269Z,7.30
2022-12-25T14:10:54.424Z,7.30
2022-12-25T14:13:29.151Z,7.30
2022-12-25T14:16:00.520Z,7.30
2022-12-25T14:18:31.456Z,7.30
2022-12-25T14:21:04.354Z,7.50
2022-12-25T14:23:44.504Z,7.20
2022-12-25T14:26:18.757Z,7.40
2022-12-25T14:28:52.537Z,7.40
2022-12-25T14:31:23.934Z,7.30
2022-12-25T14:33:55.823Z,7.30
2022-12-25T14:36:25.718Z,7.50
2022-12-25T14:39:03.662Z,7.30
2022-12-25T14:41:38.426Z,7.30
2022-12-25T14:44:27.808Z,7.30
2022-12-25T14:47:07.030Z,7.30
2022-12-25T14:49:37.098Z,7.30
2022-12-25T14:52:13.154Z,7.40
2022-12-25T14:54:48.814Z,7.40
2022-12-25T14:57:22.714Z,7.30
2022-12-25T15:00:00.693Z,7.40
2022-12-25T15:02:33.607Z,7.40
2022-12-25T15:05:03.927Z,7.30
2022-12-25T15:07:34.545Z,7.50
2022-12-25T15:10:57.711Z,7.80
2022-12-25T15:13:03.157Z,7.80
2022-12-25T15:15:35.688Z,7.50
2022-12-25T15:18:07.287Z,7.50
2022-12-25T15:20:38.419Z,7.70
2022-12-25T15:23:24.294Z,7.90
2022-12-25T15:25:57.959Z,7.90
2022-12-25T15:28:27.783Z,7.70
2022-12-25T15:30:58.364Z,7.80
2022-12-25T15:33:28.249Z,7.90
2022-12-25T15:35:58.625Z,7.80
2022-12-25T15:38:28.414Z,7.80
2022-12-25T15:41:01.312Z,8.00
2022-12-25T15:43:46.456Z,7.80
2022-12-25T15:46:17.092Z,7.80
2022-12-25T15:48:47.267Z,7.80
2022-12-25T15:51:17.464Z,7.80
2022-12-25T15:53:47.255Z,7.90
2022-12-25T15:56:20.140Z,7.90
2022-12-25T15:58:49.959Z,7.90
2022-12-25T16:01:22.996Z,7.80
2022-12-25T16:03:52.988Z,8.00
2022-12-25T16:06:23.281Z,7.90
2022-12-25T16:08:53.118Z,7.80
2022-12-25T16:11:26.279Z,7.80
2022-12-25T16:13:56.078Z,7.90
2022-12-25T16:16:26.735Z,7.90
2022-12-25T16:18:56.684Z,7.80
2022-12-25T16:21:27.588Z,7.80
2022-12-25T16:23:58.100Z,7.80
2022-12-25T16:26:33.632Z,7.80
2022-12-25T16:29:06.990Z,7.80
2022-12-25T16:31:38.175Z,7.80
2022-12-25T16:34:08.975Z,7.80
2022-12-25T16:36:39.806Z,7.90
2022-12-25T16:39:10.018Z,8.00
2022-12-25T16:41:42.865Z,7.90
2022-12-25T16:44:13.558Z,7.90
2022-12-25T16:46:44.053Z,8.10
2022-12-25T16:49:13.882Z,8.20
2022-12-25T16:51:43.933Z,7.90
2022-12-25T16:54:13.725Z,7.90
2022-12-25T16:56:46.778Z,8.00
2022-12-25T16:59:16.580Z,8.00
2022-12-25T17:01:47.032Z,7.90
2022-12-25T17:04:16.846Z,8.20
2022-12-25T17:06:47.430Z,8.30
2022-12-25T17:09:17.406Z,8.00
2022-12-25T17:11:50.221Z,7.90
2022-12-25T17:14:19.940Z,7.90
2022-12-25T17:16:50.593Z,8.00
2022-12-25T17:19:22.678Z,8.10
2022-12-25T17:21:55.248Z,8.00
2022-12-25T17:24:25.523Z,8.00
2022-12-25T17:26:58.693Z,8.20
2022-12-25T17:29:28.426Z,8.00
2022-12-25T17:31:58.782Z,8.00
2022-12-25T17:34:28.641Z,7.90
2022-12-25T17:36:59.275Z,7.90
2022-12-25T17:39:29.411Z,7.90
2022-12-25T17:42:02.437Z,7.90
2022-12-25T17:44:32.336Z,7.90
2022-12-25T17:47:02.683Z,8.00
2022-12-25T17:49:32.526Z,8.30
2022-12-25T17:52:03.044Z,7.90
2022-12-25T17:54:32.796Z,7.90
2022-12-25T17:57:05.397Z,7.90
2022-12-25T17:59:35.316Z,7.90
2022-12-25T18:02:05.807Z,7.90
2022-12-25T18:04:35.733Z,8.20
2022-12-25T18:07:08.695Z,8.20
2022-12-25T18:09:39.122Z,8.20
2022-12-25T18:12:12.437Z,8.00
2022-12-25T18:14:42.164Z,8.20
2022-12-25T18:17:12.495Z,8.20
2022-12-25T18:19:42.318Z,8.00
2022-12-25T18:22:13.329Z,7.90
2022-12-25T18:24:43.407Z,8.10
2022-12-25T18:27:15.927Z,8.20
2022-12-25T18:29:46.148Z,8.10
2022-12-25T18:32:15.873Z,8.20
2022-12-25T18:34:45.592Z,8.10
2022-12-25T18:37:15.443Z,8.30
2022-12-25T18:39:45.176Z,8.00
2022-12-25T18:42:30.147Z,8.20
2022-12-25T18:45:00.289Z,8.30
2022-12-25T18:47:30.041Z,8.10
2022-12-25T18:50:00.166Z,8.00
2022-12-25T18:52:49.078Z,8.00
2022-12-25T18:55:20.598Z,8.10
2022-12-25T18:57:52.907Z,8.00
2022-12-25T19:00:23.900Z,8.00
2022-12-25T19:02:58.067Z,8.10
2022-12-25T19:05:28.633Z,8.10
2022-12-25T19:07:58.403Z,8.10
2022-12-25T19:10:28.604Z,8.10
2022-12-25T19:13:01.018Z,8.20
2022-12-25T19:15:31.679Z,8.10
2022-12-25T19:18:01.513Z,8.30
2022-12-25T19:20:31.797Z,8.10
2022-12-25T19:23:01.624Z,8.10
2022-12-25T19:25:32.136Z,8.10
2022-12-25T19:28:04.555Z,8.30
2022-12-25T19:30:34.819Z,8.20
2022-12-25T19:33:04.723Z,8.10
2022-12-25T19:35:35.318Z,8.10
2022-12-25T19:38:05.116Z,8.10
2022-12-25T19:40:40.111Z,8.30
2022-12-25T19:43:13.188Z,8.10
2022-12-25T19:45:43.587Z,8.10
2022-12-25T19:48:13.480Z,8.10
2022-12-25T19:50:44.667Z,8.20
2022-12-25T19:53:16.781Z,8.20
2022-12-25T19:55:47.432Z,8.20
2022-12-25T19:58:19.878Z,8.40
2022-12-25T20:01:00.194Z,8.30
2022-12-25T20:03:30.383Z,8.30
2022-12-25T20:06:00.999Z,8.30
2022-12-25T20:08:31.272Z,8.30
2022-12-25T20:11:02.567Z,8.60
2022-12-25T20:13:35.352Z,8.30
2022-12-25T20:16:06.775Z,8.60
2022-12-25T20:18:36.554Z,8.30
2022-12-25T20:21:09.736Z,8.30
2022-12-25T20:23:39.822Z,8.30
2022-12-25T20:26:11.270Z,8.50
2022-12-25T20:28:44.707Z,8.30
2022-12-25T20:31:18.542Z,8.30
2022-12-25T20:33:48.899Z,8.60
2022-12-25T20:36:19.857Z,8.40
2022-12-25T20:38:50.068Z,8.70
2022-12-25T20:41:27.998Z,8.30
2022-12-25T20:44:01.951Z,8.50
2022-12-25T20:46:32.375Z,8.40
2022-12-25T20:49:04.120Z,8.40
2022-12-25T20:51:34.926Z,8.40
2022-12-25T20:54:09.497Z,8.40
2022-12-25T20:56:40.810Z,8.40
2022-12-25T20:59:14.597Z,8.40
2022-12-25T21:01:44.905Z,8.40
2022-12-25T21:04:16.780Z,8.40
2022-12-25T21:06:47.457Z,8.40
2022-12-25T21:09:17.326Z,8.40
2022-12-25T21:11:47.893Z,8.40
2022-12-25T21:14:20.306Z,8.40
2022-12-25T21:16:50.735Z,8.40
2022-12-25T21:19:20.643Z,8.50
2022-12-25T21:21:53.462Z,8.60
2022-12-25T21:24:26.303Z,8.70
2022-12-25T21:26:56.386Z,8.50
2022-12-25T21:29:28.944Z,8.60
2022-12-25T21:32:11.958Z,8.40
2022-12-25T21:34:41.791Z,8.50
2022-12-25T21:37:11.908Z,8.60
2022-12-25T21:39:41.879Z,8.40
2022-12-25T21:42:11.912Z,8.50
2022-12-25T21:44:44.311Z,8.50
2022-12-25T21:47:14.427Z,8.50
2022-12-25T21:49:56.703Z,8.60
2022-12-25T21:52:28.456Z,8.50
2022-12-25T21:54:58.241Z,8.50
2022-12-25T21:57:28.438Z,8.50
2022-12-25T22:00:00.849Z,8.50
2022-12-25T22:02:31.499Z,8.60
2022-12-25T22:05:01.380Z,8.50
2022-12-25T22:07:28.982Z,8.60
2022-12-25T22:09:58.932Z,8.50
2022-12-25T22:12:41.791Z,8.50
2022-12-25T22:15:14.552Z,8.60
2022-12-25T22:17:58.748Z,8.50
2022-12-25T22:20:30.698Z,8.50
2022-12-25T22:23:01.602Z,8.50
2022-12-25T22:25:31.460Z,8.70
2022-12-25T22:28:01.866Z,8.60
2022-12-25T22:30:34.715Z,8.60
2022-12-25T22:33:04.891Z,8.60
2022-12-25T22:35:34.792Z,8.60
2022-12-25T22:38:04.992Z,8.60
2022-12-25T22:40:34.764Z,8.60
2022-12-25T22:43:05.294Z,8.90
2022-12-25T22:45:37.786Z,8.50
2022-12-25T22:48:08.666Z,9.00
2022-12-25T22:50:38.447Z,8.90
2022-12-25T22:53:08.805Z,8.60
2022-12-25T22:55:38.619Z,8.70
2022-12-25T22:58:09.098Z,8.70
2022-12-25T23:00:46.245Z,8.80
2022-12-25T23:03:17.100Z,9.00
2022-12-25T23:05:47.450Z,8.90
2022-12-25T23:08:17.960Z,8.70
2022-12-25T23:10:47.743Z,8.70
2022-12-25T23:13:30.390Z,9.00
2022-12-25T23:16:02.861Z,8.70
2022-12-25T23:18:46.152Z,8.80
2022-12-25T23:21:29.903Z,8.70
2022-12-25T23:24:13.353Z,8.80
2022-12-25T23:26:43.148Z,8.80
2022-12-25T23:29:26.011Z,8.90
2022-12-25T23:32:00.614Z,8.80
2022-12-25T23:34:30.836Z,8.90
2022-12-25T23:37:01.848Z,8.80
2022-12-25T23:39:31.754Z,8.70
2022-12-25T23:42:02.426Z,8.80
2022-12-25T23:44:32.562Z,8.60
2022-12-25T23:47:05.680Z,8.90
2022-12-25T23:49:35.609Z,8.70
2022-12-25T23:52:07.615Z,8.90
2022-12-25T23:54:37.530Z,8.80
2022-12-25T23:57:08.875Z,8.80
2022-12-25T23:59:38.812Z,8.70
